createdAt,value
2017-05-14T00:00:15.222Z,16.80
2017-05-14T00:02:42.595Z,16.80
2017-05-14T00:05:10.091Z,16.80
2017-05-14T00:07:37.687Z,16.80
2017-05-14T00:10:05.209Z,16.80
2017-05-14T00:12:32.594Z,16.80
2017-05-14T00:15:00.076Z,16.80
2017-05-14T00:17:28.147Z,16.80
2017-05-14T00:19:56.225Z,16.80
2017-05-14T00:22:24.465Z,16.70
2017-05-14T00:24:51.805Z,16.70
2017-05-14T00:27:19.134Z,16.60
2017-05-14T00:29:46.535Z,16.60
2017-05-14T00:32:13.910Z,16.70
2017-05-14T00:34:41.321Z,16.60
2017-05-14T00:37:08.843Z,16.40
2017-05-14T00:39:36.201Z,16.30
2017-05-14T00:42:03.769Z,16.50
2017-05-14T00:44:31.123Z,16.50
2017-05-14T00:46:58.507Z,16.60
2017-05-14T00:49:25.854Z,16.60
2017-05-14T00:51:53.183Z,16.60
2017-05-14T00:54:20.593Z,16.60
2017-05-14T00:56:48.237Z,16.60
2017-05-14T00:59:16.579Z,16.50
2017-05-14T01:01:43.936Z,16.50
2017-05-14T01:04:11.298Z,16.50
2017-05-14T01:06:38.674Z,16.40
2017-05-14T01:09:06.055Z,16.20
2017-05-14T01:11:34.473Z,15.70
2017-05-14T01:14:01.848Z,15.60
2017-05-14T01:16:29.704Z,15.70
2017-05-14T01:18:57.220Z,15.70
2017-05-14T01:21:24.573Z,15.80
2017-05-14T01:23:52.740Z,15.70
2017-05-14T01:26:20.369Z,15.60
2017-05-14T01:28:48.003Z,15.60
2017-05-14T01:31:15.590Z,15.60
2017-05-14T01:33:43.023Z,15.70
2017-05-14T01:36:10.418Z,15.60
2017-05-14T01:38:38.129Z,15.70
2017-05-14T01:41:05.492Z,15.60
2017-05-14T01:43:32.969Z,15.70
2017-05-14T01:46:00.336Z,15.60
2017-05-14T01:48:28.338Z,15.60
2017-05-14T01:50:56.612Z,15.50
2017-05-14T01:53:24.732Z,15.40
2017-05-14T01:55:52.145Z,15.20
2017-05-14T01:58:19.887Z,15.20
2017-05-14T02:00:47.298Z,15.20
2017-05-14T02:03:14.756Z,15.30
2017-05-14T02:05:42.158Z,15.30
2017-05-14T02:08:10.587Z,15.30
2017-05-14T02:10:37.985Z,15.30
2017-05-14T02:13:05.447Z,15.20
2017-05-14T02:15:32.789Z,15.10
2017-05-14T02:18:00.149Z,15.20
2017-05-14T02:20:27.906Z,15.00
2017-05-14T02:22:55.445Z,14.90
2017-05-14T02:25:23.130Z,14.90
2017-05-14T02:27:50.490Z,14.90
2017-05-14T02:30:17.798Z,14.80
2017-05-14T02:32:45.542Z,14.90
2017-05-14T02:35:13.139Z,14.80
2017-05-14T02:37:40.589Z,14.80
2017-05-14T02:40:07.976Z,14.80
2017-05-14T02:42:35.437Z,14.90
2017-05-14T02:45:03.604Z,14.80
2017-05-14T02:47:30.950Z,14.90
2017-05-14T02:49:58.602Z,14.90
2017-05-14T02:52:25.961Z,14.90
2017-05-14T02:54:54.177Z,15.00
2017-05-14T02:57:22.329Z,14.80
2017-05-14T02:59:50.020Z,14.90
2017-05-14T03:02:18.268Z,14.80
2017-05-14T03:04:46.427Z,14.80
2017-05-14T03:07:13.777Z,14.90
2017-05-14T03:09:41.659Z,14.90
2017-05-14T03:12:09.084Z,14.80
2017-05-14T03:14:37.008Z,14.70
2017-05-14T03:17:04.400Z,14.80
2017-05-14T03:19:31.769Z,14.80
2017-05-14T03:21:59.141Z,14.70
2017-05-14T03:24:26.493Z,14.70
2017-05-14T03:26:53.839Z,14.70
2017-05-14T03:29:22.236Z,14.80
2017-05-14T03:31:49.624Z,14.80
2017-05-14T03:34:17.042Z,14.70
2017-05-14T03:36:47.392Z,14.90
2017-05-14T03:39:15.543Z,14.70
2017-05-14T03:41:43.645Z,14.90
2017-05-14T03:44:11.754Z,15.00
2017-05-14T03:46:39.153Z,15.00
2017-05-14T03:49:06.540Z,15.10
2017-05-14T03:51:33.899Z,15.00
2017-05-14T03:54:02.171Z,15.00
2017-05-14T03:56:29.759Z,15.00
2017-05-14T03:58:57.143Z,15.00
2017-05-14T04:01:25.390Z,15.00
2017-05-14T04:03:52.874Z,15.00
2017-05-14T04:06:20.815Z,15.00
2017-05-14T04:08:48.178Z,15.00
2017-05-14T04:11:15.524Z,15.00
2017-05-14T04:13:43.053Z,15.10
2017-05-14T04:16:10.538Z,15.10
2017-05-14T04:18:37.939Z,15.10
2017-05-14T04:21:06.040Z,15.10
2017-05-14T04:23:33.617Z,15.20
2017-05-14T04:26:00.957Z,15.10
2017-05-14T04:28:34.597Z,15.00
2017-05-14T04:31:02.001Z,15.10
2017-05-14T04:33:29.625Z,15.00
2017-05-14T04:35:57.029Z,15.00
2017-05-14T04:38:25.098Z,15.20
2017-05-14T04:40:52.879Z,15.20
2017-05-14T04:43:20.247Z,15.30
2017-05-14T04:45:47.627Z,15.30
2017-05-14T04:48:15.845Z,15.30
2017-05-14T04:50:43.269Z,15.30
2017-05-14T04:53:11.373Z,15.30
2017-05-14T04:55:38.782Z,15.30
2017-05-14T04:58:06.161Z,15.30
2017-05-14T05:00:34.491Z,15.40
2017-05-14T05:03:01.866Z,15.40
2017-05-14T05:05:29.617Z,15.50
2017-05-14T05:07:57.085Z,15.40
2017-05-14T05:10:24.634Z,15.40
2017-05-14T05:12:53.123Z,15.40
2017-05-14T05:15:21.241Z,15.40
2017-05-14T05:17:49.207Z,15.50
2017-05-14T05:20:16.835Z,15.60
2017-05-14T05:22:44.972Z,15.70
2017-05-14T05:25:12.344Z,15.90
2017-05-14T05:27:39.734Z,16.00
2017-05-14T05:30:07.255Z,16.00
2017-05-14T05:32:35.176Z,16.00
2017-05-14T05:35:03.104Z,16.10
2017-05-14T05:37:30.884Z,16.10
2017-05-14T05:39:58.228Z,16.20
2017-05-14T05:42:25.596Z,16.30
2017-05-14T05:44:53.835Z,16.30
2017-05-14T05:47:21.307Z,16.40
2017-05-14T05:49:49.938Z,16.50
2017-05-14T05:52:17.358Z,16.60
2017-05-14T05:54:45.762Z,16.60
2017-05-14T05:57:13.883Z,16.70
2017-05-14T05:59:41.988Z,16.80
2017-05-14T06:02:10.073Z,16.80
2017-05-14T06:04:37.435Z,16.90
2017-05-14T06:07:05.072Z,17.00
2017-05-14T06:09:32.409Z,17.00
2017-05-14T06:11:59.785Z,17.10
2017-05-14T06:14:27.187Z,17.20
2017-05-14T06:16:55.294Z,17.20
2017-05-14T06:19:22.647Z,17.30
2017-05-14T06:21:50.902Z,17.30
2017-05-14T06:24:18.275Z,17.50
2017-05-14T06:26:46.060Z,17.70
2017-05-14T06:29:14.215Z,18.00
2017-05-14T06:31:41.599Z,18.00
2017-05-14T06:34:08.975Z,18.10
2017-05-14T06:36:36.394Z,18.20
2017-05-14T06:39:04.489Z,18.30
2017-05-14T06:41:32.158Z,18.40
2017-05-14T06:43:59.640Z,18.50
2017-05-14T06:46:27.016Z,18.70
2017-05-14T06:48:54.390Z,18.70
2017-05-14T06:51:22.810Z,18.90
2017-05-14T06:53:50.317Z,18.90
2017-05-14T06:56:18.431Z,18.90
2017-05-14T06:58:46.430Z,18.90
2017-05-14T07:01:14.161Z,19.00
2017-05-14T07:03:41.497Z,19.10
2017-05-14T07:06:09.718Z,19.10
2017-05-14T07:08:37.122Z,19.10
2017-05-14T07:11:05.221Z,19.10
2017-05-14T07:13:32.648Z,19.20
2017-05-14T07:15:59.987Z,19.10
2017-05-14T07:18:28.790Z,19.30
2017-05-14T07:20:56.142Z,19.40
2017-05-14T07:23:24.245Z,19.60
2017-05-14T07:25:51.719Z,19.60
2017-05-14T07:28:19.086Z,19.60
2017-05-14T07:30:46.483Z,19.70
2017-05-14T07:33:14.964Z,19.80
2017-05-14T07:35:43.141Z,19.90
2017-05-14T07:38:10.550Z,20.00
2017-05-14T07:40:38.547Z,20.10
2017-05-14T07:43:05.933Z,19.90
2017-05-14T07:45:34.035Z,20.00
2017-05-14T07:48:01.363Z,20.00
2017-05-14T07:50:33.890Z,20.20
2017-05-14T07:53:02.557Z,20.20
2017-05-14T07:55:29.993Z,20.40
2017-05-14T07:57:58.026Z,20.40
2017-05-14T08:00:25.720Z,20.50
2017-05-14T08:02:53.341Z,20.70
2017-05-14T08:05:20.803Z,20.50
2017-05-14T08:07:49.316Z,20.70
2017-05-14T08:10:16.711Z,20.80
2017-05-14T08:12:44.104Z,20.90
2017-05-14T08:15:12.197Z,20.80
2017-05-14T08:17:39.902Z,20.90
2017-05-14T08:20:07.649Z,21.00
2017-05-14T08:22:35.043Z,20.90
2017-05-14T08:25:02.437Z,21.10
2017-05-14T08:27:30.182Z,21.30
2017-05-14T08:29:57.585Z,21.40
2017-05-14T08:32:24.974Z,21.40
2017-05-14T08:34:52.317Z,21.50
2017-05-14T08:37:20.219Z,21.60
2017-05-14T08:39:50.191Z,22.00
2017-05-14T08:42:17.642Z,22.20
2017-05-14T08:44:46.657Z,22.20
2017-05-14T08:47:14.190Z,22.50
2017-05-14T08:49:41.547Z,22.80
2017-05-14T08:52:09.016Z,23.70
2017-05-14T08:54:43.460Z,23.50
2017-05-14T08:57:10.903Z,23.60
2017-05-14T08:59:38.253Z,24.10
2017-05-14T09:02:05.712Z,24.40
2017-05-14T09:04:33.856Z,25.80
2017-05-14T09:07:01.970Z,29.80
2017-05-14T09:09:30.543Z,33.80
2017-05-14T09:11:58.140Z,37.40
2017-05-14T09:14:25.547Z,38.60
2017-05-14T09:16:52.913Z,39.90
2017-05-14T09:19:21.048Z,40.70
2017-05-14T09:21:48.411Z,41.30
2017-05-14T09:24:15.735Z,42.20
2017-05-14T09:26:43.073Z,43.40
2017-05-14T09:29:10.485Z,43.30
2017-05-14T09:31:38.400Z,43.10
2017-05-14T09:34:06.095Z,40.00
2017-05-14T09:36:33.593Z,33.80
2017-05-14T09:39:02.139Z,33.60
2017-05-14T09:41:29.515Z,34.30
2017-05-14T09:43:56.976Z,34.20
2017-05-14T09:46:24.349Z,34.90
2017-05-14T09:48:52.472Z,35.60
2017-05-14T09:51:19.844Z,34.10
2017-05-14T09:53:47.217Z,33.00
2017-05-14T09:56:15.357Z,34.40
2017-05-14T09:58:42.782Z,34.80
2017-05-14T10:01:10.230Z,34.20
2017-05-14T10:03:38.133Z,33.70
2017-05-14T10:06:06.165Z,33.90
2017-05-14T10:08:34.948Z,32.60
2017-05-14T10:11:03.125Z,32.60
2017-05-14T10:13:30.497Z,33.00
2017-05-14T10:15:59.635Z,32.60
2017-05-14T10:18:27.267Z,33.80
2017-05-14T10:20:54.632Z,33.60
2017-05-14T10:23:22.520Z,33.40
2017-05-14T10:25:49.878Z,32.50
2017-05-14T10:28:18.029Z,33.50
2017-05-14T10:30:45.427Z,33.80
2017-05-14T10:33:12.914Z,32.10
2017-05-14T10:35:40.306Z,32.80
2017-05-14T10:38:08.640Z,31.70
2017-05-14T10:40:35.994Z,29.80
2017-05-14T10:43:03.399Z,31.40
2017-05-14T10:45:30.757Z,31.60
2017-05-14T10:47:58.111Z,31.10
2017-05-14T10:50:25.506Z,31.20
2017-05-14T10:52:59.837Z,31.40
2017-05-14T10:55:27.202Z,31.10
2017-05-14T10:57:54.684Z,30.70
2017-05-14T11:00:22.028Z,31.10
2017-05-14T11:02:49.398Z,31.50
2017-05-14T11:05:16.735Z,31.00
2017-05-14T11:07:44.077Z,30.30
2017-05-14T11:10:11.467Z,29.80
2017-05-14T11:12:38.942Z,30.70
2017-05-14T11:15:06.449Z,29.60
2017-05-14T11:17:33.807Z,29.10
2017-05-14T11:20:01.141Z,28.30
2017-05-14T11:22:28.834Z,28.90
2017-05-14T11:25:01.459Z,30.00
2017-05-14T11:27:29.684Z,30.20
2017-05-14T11:29:57.252Z,30.80
2017-05-14T11:32:24.744Z,30.90
2017-05-14T11:34:53.277Z,30.80
2017-05-14T11:37:20.756Z,30.50
2017-05-14T11:39:48.102Z,31.00
2017-05-14T11:42:16.437Z,30.90
2017-05-14T11:44:43.819Z,31.40
2017-05-14T11:47:11.153Z,31.60
2017-05-14T11:49:38.492Z,31.20
2017-05-14T11:52:05.898Z,31.50
2017-05-14T11:54:33.266Z,31.50
2017-05-14T11:57:00.637Z,31.60
2017-05-14T11:59:29.586Z,31.70
2017-05-14T12:01:56.981Z,32.00
2017-05-14T12:04:24.321Z,31.20
2017-05-14T12:06:51.702Z,30.20
2017-05-14T12:09:20.027Z,29.90
2017-05-14T12:11:48.535Z,29.40
2017-05-14T12:14:15.933Z,28.90
2017-05-14T12:16:43.320Z,28.80
2017-05-14T12:19:10.691Z,28.90
2017-05-14T12:21:38.038Z,28.10
2017-05-14T12:24:05.421Z,27.50
2017-05-14T12:26:33.580Z,27.00
2017-05-14T12:29:01.325Z,26.50
2017-05-14T12:31:29.074Z,25.70
2017-05-14T12:33:56.436Z,25.20
2017-05-14T12:36:23.737Z,24.90
2017-05-14T12:38:51.873Z,24.80
2017-05-14T12:41:20.285Z,24.90
2017-05-14T12:43:47.961Z,24.70
2017-05-14T12:46:15.984Z,24.70
2017-05-14T12:48:43.404Z,24.70
2017-05-14T12:51:10.793Z,24.50
2017-05-14T12:53:38.241Z,24.20
2017-05-14T12:56:06.266Z,24.20
2017-05-14T12:58:33.609Z,24.20
2017-05-14T13:01:02.286Z,24.10
2017-05-14T13:03:29.840Z,24.20
2017-05-14T13:05:57.895Z,23.90
2017-05-14T13:08:25.377Z,23.50
2017-05-14T13:10:53.506Z,23.50
2017-05-14T13:13:21.057Z,23.40
2017-05-14T13:15:48.685Z,23.40
2017-05-14T13:18:16.091Z,23.20
2017-05-14T13:20:43.469Z,23.20
2017-05-14T13:23:11.601Z,23.30
2017-05-14T13:28:21.320Z,23.20
2017-05-14T13:30:49.494Z,23.20
2017-05-14T13:33:17.090Z,23.20
2017-05-14T13:35:44.452Z,23.40
2017-05-14T13:38:12.161Z,23.50
2017-05-14T13:40:39.542Z,23.60
2017-05-14T13:43:07.277Z,23.60
2017-05-14T13:45:35.459Z,23.70
2017-05-14T13:48:03.678Z,23.80
2017-05-14T13:50:44.217Z,24.10
2017-05-14T13:53:11.579Z,24.20
2017-05-14T13:55:46.829Z,24.10
2017-05-14T13:58:14.619Z,24.10
2017-05-14T14:00:49.794Z,24.20
2017-05-14T14:03:17.880Z,24.30
2017-05-14T14:05:45.415Z,24.30
2017-05-14T14:08:12.861Z,24.40
2017-05-14T14:10:40.358Z,24.40
2017-05-14T14:13:07.721Z,24.30
2017-05-14T14:15:35.209Z,24.00
2017-05-14T14:18:02.610Z,23.90
2017-05-14T14:20:30.808Z,23.80
2017-05-14T14:22:58.274Z,23.70
2017-05-14T14:25:26.966Z,23.70
2017-05-14T14:27:54.290Z,23.50
2017-05-14T14:30:21.906Z,23.50
2017-05-14T14:32:50.020Z,23.40
2017-05-14T14:35:17.499Z,23.30
2017-05-14T14:37:44.873Z,23.10
2017-05-14T14:40:12.467Z,23.10
2017-05-14T14:42:39.826Z,23.30
2017-05-14T14:45:07.248Z,23.50
2017-05-14T14:47:34.603Z,23.50
2017-05-14T14:50:02.040Z,23.40
2017-05-14T14:52:29.373Z,23.40
2017-05-14T14:54:58.076Z,23.50
2017-05-14T14:57:25.506Z,23.40
2017-05-14T14:59:53.046Z,23.40
2017-05-14T15:02:21.468Z,23.10
2017-05-14T15:04:48.855Z,23.10
2017-05-14T15:07:16.640Z,22.90
2017-05-14T15:09:44.069Z,22.90
2017-05-14T15:12:19.716Z,22.70
2017-05-14T15:14:47.094Z,22.60
2017-05-14T15:17:14.519Z,22.80
2017-05-14T15:19:41.909Z,22.90
2017-05-14T15:22:10.137Z,22.80
2017-05-14T15:24:38.503Z,23.20
2017-05-14T15:27:06.483Z,23.40
2017-05-14T15:29:33.943Z,24.10
2017-05-14T15:32:01.310Z,24.90
2017-05-14T15:34:29.160Z,24.60
2017-05-14T15:36:56.533Z,24.30
2017-05-14T15:39:23.991Z,24.10
2017-05-14T15:41:51.467Z,23.80
2017-05-14T15:44:19.344Z,23.50
2017-05-14T15:46:47.686Z,23.40
2017-05-14T15:49:15.300Z,23.50
2017-05-14T15:51:43.840Z,23.30
2017-05-14T15:54:17.831Z,23.30
2017-05-14T15:56:45.483Z,23.40
2017-05-14T16:02:51.105Z,23.00
2017-05-14T16:05:18.845Z,22.80
2017-05-14T16:07:46.548Z,22.80
2017-05-14T16:10:14.725Z,23.00
2017-05-14T16:12:42.082Z,22.80
2017-05-14T16:15:09.805Z,22.80
2017-05-14T16:17:38.425Z,22.80
2017-05-14T16:20:05.880Z,22.90
2017-05-14T16:22:34.329Z,22.90
2017-05-14T16:25:02.536Z,22.90
2017-05-14T16:27:30.653Z,22.90
2017-05-14T16:29:59.014Z,22.70
2017-05-14T16:32:27.002Z,22.50
2017-05-14T16:34:54.597Z,22.40
2017-05-14T16:37:22.133Z,22.40
2017-05-14T16:39:49.585Z,22.40
2017-05-14T16:42:17.600Z,22.20
2017-05-14T16:44:46.437Z,22.00
2017-05-14T16:47:13.861Z,21.80
2017-05-14T16:49:46.572Z,21.70
2017-05-14T16:52:14.001Z,21.60
2017-05-14T16:54:43.379Z,21.50
2017-05-14T16:57:10.822Z,21.50
2017-05-14T16:59:39.647Z,21.30
2017-05-14T17:02:07.646Z,21.10
2017-05-14T17:04:36.009Z,21.10
2017-05-14T17:07:03.437Z,21.20
2017-05-14T17:09:39.109Z,21.10
2017-05-14T17:12:08.870Z,21.00
2017-05-14T17:14:37.104Z,21.00
2017-05-14T17:17:04.568Z,20.90
2017-05-14T17:19:33.295Z,20.60
2017-05-14T17:22:01.558Z,20.60
2017-05-14T17:24:30.536Z,20.60
2017-05-14T17:26:58.151Z,20.50
2017-05-14T17:29:25.585Z,20.70
2017-05-14T17:31:54.347Z,20.60
2017-05-14T17:34:22.529Z,20.50
2017-05-14T17:36:50.258Z,20.80
2017-05-14T17:39:17.774Z,21.00
2017-05-14T17:41:45.414Z,21.00
2017-05-14T17:44:13.515Z,21.00
2017-05-14T17:46:41.232Z,21.00
2017-05-14T17:49:08.747Z,20.80
2017-05-14T17:51:36.311Z,21.00
2017-05-14T17:54:05.473Z,21.00
2017-05-14T17:56:33.016Z,21.00
2017-05-14T17:59:00.452Z,20.90
2017-05-14T18:01:29.002Z,20.80
2017-05-14T18:03:56.495Z,20.80
2017-05-14T18:06:24.717Z,20.70
2017-05-14T18:08:52.185Z,20.70
2017-05-14T18:11:19.674Z,20.60
2017-05-14T18:13:48.249Z,20.60
2017-05-14T18:16:17.229Z,20.40
2017-05-14T18:18:44.712Z,20.50
2017-05-14T18:21:12.145Z,20.50
2017-05-14T18:23:40.373Z,20.40
2017-05-14T18:26:08.018Z,20.40
2017-05-14T18:28:35.442Z,20.40
2017-05-14T18:31:03.100Z,20.30
2017-05-14T18:33:32.664Z,20.20
2017-05-14T18:36:00.218Z,20.20
2017-05-14T18:38:27.732Z,20.00
2017-05-14T18:40:55.853Z,20.00
2017-05-14T18:43:23.405Z,20.00
2017-05-14T18:45:51.827Z,19.90
2017-05-14T18:48:19.435Z,19.80
2017-05-14T18:50:47.637Z,19.90
2017-05-14T18:53:15.450Z,20.00
2017-05-14T18:55:42.873Z,19.90
2017-05-14T18:58:10.865Z,19.90
2017-05-14T19:00:38.440Z,19.80
2017-05-14T19:03:05.896Z,19.70
2017-05-14T19:05:34.114Z,19.90
2017-05-14T19:08:01.707Z,20.00
2017-05-14T19:10:29.432Z,19.80
2017-05-14T19:12:56.955Z,19.70
2017-05-14T19:15:25.265Z,19.60
2017-05-14T19:17:52.868Z,19.50
2017-05-14T19:20:20.530Z,19.40
2017-05-14T19:22:48.321Z,19.40
2017-05-14T19:25:15.790Z,19.30
2017-05-14T19:27:43.482Z,19.30
2017-05-14T19:30:11.030Z,19.30
2017-05-14T19:32:38.649Z,19.40
2017-05-14T19:35:06.914Z,19.30
2017-05-14T19:37:35.275Z,19.30
2017-05-14T19:40:02.864Z,19.30
2017-05-14T19:42:31.174Z,19.30
2017-05-14T19:44:58.893Z,19.20
2017-05-14T19:47:26.440Z,19.20
2017-05-14T19:49:54.097Z,19.20
2017-05-14T19:52:22.404Z,19.10
2017-05-14T19:54:49.969Z,19.20
2017-05-14T19:57:18.148Z,19.20
2017-05-14T19:59:45.676Z,19.20
2017-05-14T20:02:13.336Z,19.30
2017-05-14T20:04:42.392Z,19.20
2017-05-14T20:07:10.263Z,19.30
2017-05-14T20:09:37.869Z,19.20
2017-05-14T20:12:05.614Z,19.00
2017-05-14T20:14:34.080Z,19.00
2017-05-14T20:17:01.585Z,18.90
2017-05-14T20:19:29.322Z,18.90
2017-05-14T20:21:56.770Z,18.80
2017-05-14T20:24:24.250Z,18.80
2017-05-14T20:26:52.468Z,18.70
2017-05-14T20:29:19.937Z,18.70
2017-05-14T20:31:47.376Z,18.60
2017-05-14T20:34:14.787Z,18.50
2017-05-14T20:36:42.949Z,18.40
2017-05-14T20:39:10.440Z,18.40
2017-05-14T20:41:37.877Z,18.50
2017-05-14T20:44:06.141Z,18.60
2017-05-14T20:46:33.612Z,18.60
2017-05-14T20:49:02.164Z,18.90
2017-05-14T20:51:30.091Z,18.70
2017-05-14T20:53:57.728Z,18.70
2017-05-14T20:56:26.115Z,18.50
2017-05-14T20:58:53.647Z,18.40
2017-05-14T21:01:21.180Z,18.30
2017-05-14T21:03:48.905Z,18.40
2017-05-14T21:06:16.509Z,18.40
2017-05-14T21:08:44.081Z,18.50
2017-05-14T21:11:11.525Z,18.50
2017-05-14T21:13:39.165Z,18.40
2017-05-14T21:16:06.572Z,18.40
2017-05-14T21:18:34.606Z,18.50
2017-05-14T21:21:02.061Z,18.60
2017-05-14T21:23:29.827Z,18.70
2017-05-14T21:25:57.263Z,18.90
2017-05-14T21:28:24.726Z,18.80
2017-05-14T21:30:52.150Z,18.80
2017-05-14T21:33:20.303Z,18.90
2017-05-14T21:35:49.101Z,18.90
2017-05-14T21:38:16.758Z,18.90
2017-05-14T21:40:44.155Z,18.70
2017-05-14T21:43:11.562Z,18.70
2017-05-14T21:45:39.824Z,18.50
2017-05-14T21:48:14.299Z,18.50
2017-05-14T21:50:41.783Z,18.40
2017-05-14T21:53:09.251Z,18.30
2017-05-14T21:55:36.686Z,18.40
2017-05-14T21:58:04.084Z,18.30
2017-05-14T22:00:31.546Z,18.20
2017-05-14T22:02:59.787Z,18.10
2017-05-14T22:05:27.214Z,18.10
2017-05-14T22:07:54.595Z,18.00
2017-05-14T22:10:22.067Z,17.90
2017-05-14T22:12:49.490Z,18.00
2017-05-14T22:15:17.186Z,18.00
2017-05-14T22:17:44.557Z,17.90
2017-05-14T22:20:11.973Z,17.90
2017-05-14T22:22:39.358Z,17.80
2017-05-14T22:25:06.747Z,17.70
2017-05-14T22:27:35.612Z,17.60
2017-05-14T22:30:03.041Z,17.60
2017-05-14T22:32:30.705Z,17.50
2017-05-14T22:34:58.091Z,17.50
2017-05-14T22:37:25.489Z,17.50
2017-05-14T22:39:52.849Z,17.40
2017-05-14T22:42:20.434Z,17.40
2017-05-14T22:44:47.900Z,17.40
2017-05-14T22:47:16.842Z,17.40
2017-05-14T22:49:44.257Z,17.40
2017-05-14T22:52:11.708Z,17.40
2017-05-14T22:54:39.248Z,17.40
2017-05-14T22:57:06.593Z,17.40
2017-05-14T22:59:33.967Z,17.30
2017-05-14T23:02:01.579Z,17.40
2017-05-14T23:04:29.031Z,17.20
2017-05-14T23:06:56.642Z,17.20
2017-05-14T23:09:24.707Z,17.10
2017-05-14T23:11:52.073Z,17.00
2017-05-14T23:14:20.359Z,17.00
2017-05-14T23:16:47.993Z,17.00
2017-05-14T23:19:15.567Z,17.00
2017-05-14T23:21:42.977Z,16.90
2017-05-14T23:24:10.391Z,16.90
2017-05-14T23:26:38.104Z,16.90
2017-05-14T23:29:05.572Z,16.90
2017-05-14T23:31:33.015Z,17.00
2017-05-14T23:34:00.426Z,16.90
2017-05-14T23:36:28.062Z,17.00
2017-05-14T23:38:56.770Z,17.10
2017-05-14T23:41:24.920Z,16.90
2017-05-14T23:43:52.306Z,16.90
2017-05-14T23:46:20.474Z,16.90
2017-05-14T23:48:47.896Z,16.90
2017-05-14T23:51:15.292Z,16.90
2017-05-14T23:53:44.406Z,16.90
2017-05-14T23:56:12.015Z,16.90
2017-05-14T23:58:39.393Z,16.90
